createdAt,value
2022-12-12T08:40:41.517Z,16.20
2022-12-12T08:43:09.814Z,15.73
2022-12-12T08:45:38.761Z,15.67
2022-12-12T08:48:13.155Z,15.17
2022-12-12T08:50:42.347Z,16.50
2022-12-12T08:53:10.395Z,15.37
2022-12-12T08:55:39.961Z,15.60
2022-12-12T08:58:08.001Z,16.87
2022-12-12T09:00:35.974Z,16.47
2022-12-12T09:03:04.452Z,17.33
2022-12-12T09:05:32.632Z,16.83
2022-12-12T09:08:00.786Z,17.77
2022-12-12T09:10:29.709Z,16.97
2022-12-12T09:12:59.136Z,15.70
2022-12-12T09:15:27.143Z,17.30
2022-12-12T09:17:55.162Z,18.17
2022-12-12T09:20:23.241Z,15.80
2022-12-12T09:22:51.953Z,16.00
2022-12-12T09:25:21.810Z,16.80
2022-12-12T09:27:49.929Z,21.33
2022-12-12T09:30:19.533Z,17.97
2022-12-12T09:32:47.534Z,20.77
2022-12-12T09:35:16.145Z,24.53
2022-12-12T09:37:44.299Z,19.33
2022-12-12T09:40:19.087Z,16.40
2022-12-12T09:42:50.705Z,15.23
2022-12-12T09:45:21.494Z,14.57
2022-12-12T09:47:52.008Z,15.97
2022-12-12T09:50:34.052Z,15.87
2022-12-12T09:53:05.171Z,14.60
2022-12-12T09:55:41.825Z,14.40
2022-12-12T09:58:21.214Z,16.57
2022-12-12T10:00:57.875Z,15.67
2022-12-12T10:03:40.270Z,20.03
2022-12-12T10:06:36.478Z,16.57
2022-12-12T10:09:28.433Z,16.30
2022-12-12T10:12:00.985Z,16.07
2022-12-12T10:14:38.031Z,15.37
2022-12-12T10:17:13.060Z,16.70
2022-12-12T10:19:49.074Z,15.50
2022-12-12T10:22:24.865Z,16.03
2022-12-12T10:24:57.066Z,14.03
2022-12-12T10:27:26.132Z,14.13
2022-12-12T10:29:56.002Z,13.07
2022-12-12T10:32:37.666Z,13.23
2022-12-12T10:35:24.372Z,12.63
2022-12-12T10:38:04.306Z,12.27
2022-12-12T10:40:45.528Z,12.03
2022-12-12T10:43:19.084Z,12.80
2022-12-12T10:45:58.452Z,13.90
2022-12-12T10:48:29.548Z,13.23
2022-12-12T10:51:01.695Z,13.13
2022-12-12T10:53:30.992Z,13.00
2022-12-12T10:56:03.838Z,13.27
2022-12-12T10:58:39.164Z,13.53
2022-12-12T11:01:38.510Z,13.83
2022-12-12T11:04:08.164Z,13.10
2022-12-12T11:06:40.135Z,12.80
2022-12-12T11:09:15.288Z,12.37
2022-12-12T11:11:59.019Z,12.13
2022-12-12T11:14:32.207Z,12.10
2022-12-12T11:17:00.542Z,12.73
2022-12-12T11:19:38.522Z,14.80
2022-12-12T11:22:06.825Z,13.30
2022-12-12T11:24:37.003Z,13.87
2022-12-12T11:27:08.162Z,14.73
2022-12-12T11:29:43.956Z,13.67
2022-12-12T11:32:14.706Z,13.10
2022-12-12T11:34:47.551Z,13.63
2022-12-12T11:37:17.934Z,13.90
2022-12-12T11:39:47.916Z,14.27
2022-12-12T11:42:22.151Z,13.27
2022-12-12T11:45:00.511Z,13.93
2022-12-12T11:47:30.557Z,14.40
2022-12-12T11:50:04.962Z,15.90
2022-12-12T11:52:35.873Z,14.53
2022-12-12T11:55:04.916Z,13.67
2022-12-12T11:57:48.804Z,13.80
2022-12-12T12:00:20.089Z,13.87
2022-12-12T12:03:19.357Z,14.53
2022-12-12T12:05:58.576Z,13.73
2022-12-12T12:08:40.139Z,14.27
2022-12-12T12:11:21.065Z,14.07
2022-12-12T12:14:05.182Z,14.80
2022-12-12T12:16:45.057Z,14.10
2022-12-12T12:19:20.405Z,13.30
2022-12-12T12:22:03.264Z,14.20
2022-12-12T12:24:48.634Z,13.83
2022-12-12T12:27:24.098Z,13.27
2022-12-12T12:30:13.267Z,13.50
2022-12-12T12:32:52.098Z,13.37
2022-12-12T12:35:30.124Z,12.43
2022-12-12T12:38:10.795Z,13.77
2022-12-12T12:40:52.096Z,14.07
2022-12-12T12:43:43.300Z,14.07
2022-12-12T12:46:16.036Z,13.93
2022-12-12T12:48:48.109Z,12.23
2022-12-12T12:51:21.604Z,13.10
2022-12-12T12:53:55.917Z,13.53
2022-12-12T12:56:26.931Z,12.63
2022-12-12T12:58:58.460Z,13.27
2022-12-12T13:01:30.206Z,12.73
2022-12-12T13:04:03.925Z,12.07
2022-12-12T13:06:40.649Z,12.57
2022-12-12T13:09:25.272Z,12.40
2022-12-12T13:12:00.654Z,12.63
2022-12-12T13:14:39.617Z,12.43
2022-12-12T13:17:13.460Z,13.47
2022-12-12T13:19:45.346Z,12.17
2022-12-12T13:22:18.601Z,12.57
2022-12-12T13:24:59.801Z,12.10
2022-12-12T13:27:34.554Z,11.70
2022-12-12T13:30:06.251Z,11.30
2022-12-12T13:33:06.392Z,11.90
2022-12-12T13:35:37.319Z,10.73
2022-12-12T13:38:05.696Z,11.97
2022-12-12T13:40:40.672Z,12.27
2022-12-12T13:43:26.973Z,10.83
2022-12-12T13:45:55.254Z,11.03
2022-12-12T13:48:51.658Z,11.20
2022-12-12T13:51:43.234Z,11.23
2022-12-12T13:54:51.157Z,11.07
2022-12-12T13:58:05.987Z,11.87
2022-12-12T14:00:35.366Z,10.80
2022-12-12T14:03:08.504Z,11.13
2022-12-12T14:05:41.365Z,11.33
2022-12-12T14:08:22.663Z,11.93
2022-12-12T14:10:57.696Z,11.87
2022-12-12T14:13:51.054Z,10.97
2022-12-12T14:16:23.225Z,11.23
2022-12-12T14:19:08.004Z,10.87
2022-12-12T14:21:43.152Z,11.00
2022-12-12T14:24:47.843Z,11.43
2022-12-12T14:27:16.476Z,10.37
2022-12-12T14:29:46.557Z,11.60
2022-12-12T14:32:51.266Z,10.50
2022-12-12T14:35:32.304Z,10.40
2022-12-12T14:38:14.954Z,10.40
2022-12-12T14:40:47.386Z,10.23
2022-12-12T14:43:22.904Z,13.80
2022-12-12T14:51:25.915Z,11.10
2022-12-12T14:53:59.079Z,10.70
2022-12-12T14:56:32.623Z,11.40
2022-12-12T14:59:03.911Z,12.63
